createdAt,value
2023-02-13T00:00:24.693Z,20.30
2023-02-13T00:03:27.558Z,14.45
2023-02-13T00:06:30.531Z,9.60
2023-02-13T00:09:33.351Z,10.15
2023-02-13T00:12:36.130Z,7.15
2023-02-13T00:15:38.988Z,9.10
2023-02-13T00:18:41.707Z,18.87
2023-02-13T00:21:44.596Z,17.43
2023-02-13T00:24:47.234Z,12.27
2023-02-13T00:27:51.910Z,18.65
2023-02-13T00:30:54.643Z,14.73
2023-02-13T00:33:57.552Z,10.55
2023-02-13T00:37:00.162Z,11.43
2023-02-13T00:40:03.302Z,6.90
2023-02-13T00:43:05.900Z,14.18
2023-02-13T00:46:11.671Z,16.75
2023-02-13T00:49:14.417Z,17.58
2023-02-13T00:52:17.336Z,17.80
2023-02-13T00:55:20.028Z,20.00
2023-02-13T00:58:23.741Z,22.77
2023-02-13T01:01:26.800Z,20.33
2023-02-13T01:04:29.881Z,19.85
2023-02-13T01:07:32.971Z,15.07
2023-02-13T01:10:37.682Z,12.25
2023-02-13T01:13:40.454Z,12.15
2023-02-13T01:16:43.261Z,10.40
2023-02-13T01:19:45.880Z,11.15
2023-02-13T01:22:48.688Z,17.47
2023-02-13T01:25:52.446Z,17.50
2023-02-13T01:28:55.603Z,24.37
2023-02-13T01:31:58.299Z,16.90
2023-02-13T01:35:05.164Z,8.57
2023-02-13T01:38:08.471Z,14.70
2023-02-13T01:41:11.283Z,16.20
2023-02-13T01:44:49.478Z,17.23
2023-02-13T01:47:55.054Z,20.33
2023-02-13T01:51:09.233Z,19.67
2023-02-13T01:54:15.231Z,22.47
2023-02-13T01:57:22.260Z,19.35
2023-02-13T02:00:25.604Z,21.27
2023-02-13T02:03:32.768Z,23.48
2023-02-13T02:06:40.247Z,23.95
2023-02-13T02:09:44.349Z,19.93
2023-02-13T02:13:11.803Z,20.42
2023-02-13T02:16:15.060Z,19.52
2023-02-13T02:19:54.616Z,17.62
2023-02-13T02:23:30.363Z,22.52
2023-02-13T02:27:00.984Z,18.07
2023-02-13T02:30:26.954Z,21.55
2023-02-13T02:33:36.659Z,25.25
2023-02-13T02:36:45.656Z,18.95
2023-02-13T02:40:07.886Z,21.17
2023-02-13T02:43:22.555Z,19.00
2023-02-13T02:46:37.407Z,25.48
2023-02-13T02:50:00.429Z,25.55
2023-02-13T02:53:22.874Z,22.75
2023-02-13T02:56:33.405Z,18.62
2023-02-13T02:59:55.429Z,22.17
2023-02-13T03:03:16.892Z,19.55
2023-02-13T03:06:26.871Z,19.30
2023-02-13T03:09:51.804Z,21.37
2023-02-13T03:13:18.365Z,16.95
2023-02-13T03:16:42.405Z,19.77
2023-02-13T03:20:21.944Z,18.90
2023-02-13T03:23:37.078Z,19.60
2023-02-13T03:26:50.871Z,17.65
2023-02-13T03:30:11.899Z,26.12
2023-02-13T03:33:33.648Z,18.13
2023-02-13T03:36:54.838Z,18.37
2023-02-13T03:40:04.156Z,21.48
2023-02-13T03:43:17.578Z,20.52
2023-02-13T03:46:20.724Z,26.12
2023-02-13T03:49:47.609Z,32.77
2023-02-13T03:52:55.686Z,22.80
2023-02-13T03:56:18.958Z,23.35
2023-02-13T03:59:26.335Z,20.10
2023-02-13T04:02:33.552Z,22.40
2023-02-13T04:05:41.637Z,24.83
2023-02-13T04:08:44.380Z,22.30
2023-02-13T04:11:55.691Z,27.65
2023-02-13T04:15:03.980Z,27.17
2023-02-13T04:18:18.507Z,24.73
2023-02-13T04:21:21.186Z,25.37
2023-02-13T04:24:25.556Z,28.58
2023-02-13T04:27:29.329Z,24.60
2023-02-13T04:30:32.801Z,25.35
2023-02-13T04:33:35.430Z,24.42
2023-02-13T04:36:38.316Z,28.47
2023-02-13T04:39:42.677Z,25.48
2023-02-13T04:42:48.999Z,22.77
2023-02-13T04:45:52.312Z,24.20
2023-02-13T04:48:55.120Z,24.65
2023-02-13T04:51:57.691Z,28.23
2023-02-13T04:55:00.505Z,27.85
2023-02-13T05:01:17.007Z,29.25
2023-02-13T05:04:19.681Z,31.67
2023-02-13T05:07:22.508Z,22.57
2023-02-13T05:10:25.170Z,24.52
2023-02-13T05:13:27.993Z,55.63
2023-02-13T05:16:30.514Z,253.93
2023-02-13T05:19:33.279Z,188.75
2023-02-13T05:22:56.077Z,87.13
2023-02-13T05:25:59.081Z,66.72
2023-02-13T05:29:19.819Z,46.35
2023-02-13T05:32:22.725Z,32.70
2023-02-13T05:35:25.739Z,28.08
2023-02-13T05:38:28.522Z,39.73
2023-02-13T05:41:31.082Z,32.85
2023-02-13T05:44:33.898Z,43.00
2023-02-13T05:47:37.741Z,31.60
2023-02-13T05:50:40.608Z,27.58
2023-02-13T05:53:44.001Z,35.60
2023-02-13T05:56:47.139Z,33.00
2023-02-13T05:59:49.825Z,27.58
2023-02-13T06:02:52.813Z,27.00
2023-02-13T06:05:56.216Z,20.95
2023-02-13T06:08:59.187Z,18.77
2023-02-13T06:12:04.654Z,18.80
2023-02-13T06:15:07.576Z,20.12
2023-02-13T06:18:11.429Z,23.52
2023-02-13T06:21:14.522Z,20.83
2023-02-13T06:24:17.707Z,22.37
2023-02-13T06:27:20.428Z,23.48
2023-02-13T06:30:23.664Z,20.33
2023-02-13T06:33:26.387Z,22.65
2023-02-13T06:36:31.693Z,30.70
2023-02-13T06:39:34.917Z,31.63
2023-02-13T06:42:38.094Z,28.87
2023-02-13T06:45:42.819Z,35.17
2023-02-13T06:48:46.667Z,29.95
2023-02-13T06:51:49.246Z,31.77
2023-02-13T06:54:52.171Z,28.93
2023-02-13T06:57:54.971Z,27.42
2023-02-13T07:00:58.257Z,29.92
2023-02-13T07:04:01.284Z,35.22
2023-02-13T07:07:04.573Z,35.63
2023-02-13T07:10:10.478Z,36.20
2023-02-13T07:13:14.770Z,13.85
2023-02-13T07:16:18.017Z,25.62
2023-02-13T07:19:22.104Z,22.98
2023-02-13T07:22:25.876Z,26.25
2023-02-13T07:25:29.395Z,24.50
2023-02-13T07:28:32.771Z,29.52
2023-02-13T07:31:36.453Z,28.50
2023-02-13T07:34:44.472Z,23.73
2023-02-13T07:37:54.195Z,26.08
2023-02-13T07:41:01.309Z,26.63
2023-02-13T07:44:04.220Z,26.77
2023-02-13T07:47:06.935Z,28.30
2023-02-13T07:50:10.566Z,30.30
2023-02-13T07:53:13.270Z,32.03
2023-02-13T07:56:16.571Z,35.00
2023-02-13T07:59:19.397Z,31.52
2023-02-13T08:02:22.643Z,28.27
2023-02-13T08:05:25.549Z,32.65
2023-02-13T08:08:28.568Z,52.38
2023-02-13T08:11:51.820Z,43.30
2023-02-13T08:14:54.728Z,34.85
2023-02-13T08:17:59.538Z,34.53
2023-02-13T08:21:03.779Z,30.30
2023-02-13T08:24:08.251Z,33.03
2023-02-13T08:27:15.172Z,33.33
2023-02-13T08:30:18.638Z,47.35
2023-02-13T08:33:22.370Z,43.22
2023-02-13T08:36:27.606Z,35.22
2023-02-13T08:39:31.327Z,36.42
2023-02-13T08:42:34.900Z,27.50
2023-02-13T08:45:38.250Z,32.28
2023-02-13T08:48:41.406Z,30.40
2023-02-13T08:51:44.856Z,25.20
2023-02-13T08:54:47.928Z,31.55
2023-02-13T08:57:50.743Z,36.43
2023-02-13T09:00:56.359Z,34.53
2023-02-13T09:04:01.044Z,38.17
2023-02-13T09:07:04.558Z,32.03
2023-02-13T09:10:08.268Z,28.42
2023-02-13T09:13:11.248Z,30.47
2023-02-13T09:16:14.056Z,30.23
2023-02-13T09:19:17.137Z,29.23
2023-02-13T09:22:19.976Z,26.77
2023-02-13T09:25:23.146Z,30.45
2023-02-13T09:28:26.179Z,30.40
2023-02-13T09:31:29.823Z,22.80
2023-02-13T09:34:33.231Z,20.50
2023-02-13T09:37:36.172Z,27.92
2023-02-13T09:40:45.910Z,32.33
2023-02-13T09:43:52.569Z,16.33
2023-02-13T09:46:55.366Z,23.08
2023-02-13T09:50:03.824Z,22.13
2023-02-13T09:53:10.284Z,27.05
2023-02-13T09:56:18.215Z,22.85
2023-02-13T09:59:33.221Z,21.13
2023-02-13T10:02:46.596Z,32.03
2023-02-13T10:06:36.118Z,33.45
2023-02-13T10:10:18.296Z,20.12
2023-02-13T10:13:24.183Z,19.27
2023-02-13T10:16:54.048Z,12.47
2023-02-13T10:20:02.145Z,15.45
2023-02-13T10:23:52.975Z,22.33
2023-02-13T10:26:56.733Z,23.55
2023-02-13T10:30:09.364Z,26.73
2023-02-13T10:33:20.623Z,21.37
2023-02-13T10:36:26.691Z,30.92
2023-02-13T10:39:31.093Z,21.52
2023-02-13T10:42:50.380Z,14.60
2023-02-13T10:46:16.318Z,22.48
2023-02-13T10:49:31.069Z,22.17
2023-02-13T10:52:40.077Z,22.98
2023-02-13T10:56:09.394Z,23.87
2023-02-13T10:59:18.644Z,27.37
2023-02-13T11:02:24.280Z,25.88
2023-02-13T11:05:54.156Z,27.80
2023-02-13T11:08:56.850Z,29.23
2023-02-13T11:12:28.729Z,25.33
2023-02-13T11:15:33.178Z,23.42
2023-02-13T11:18:38.882Z,20.08
2023-02-13T11:21:41.537Z,24.47
2023-02-13T11:24:54.079Z,22.42
2023-02-13T11:28:18.201Z,31.50
2023-02-13T11:31:28.853Z,27.05
2023-02-13T11:34:33.465Z,22.33
2023-02-13T11:37:36.400Z,18.57
2023-02-13T11:40:39.334Z,25.30
2023-02-13T11:43:51.289Z,22.25
2023-02-13T11:46:56.005Z,12.88
2023-02-13T11:49:59.098Z,18.30
2023-02-13T11:53:04.639Z,28.77
2023-02-13T11:56:09.502Z,20.52
2023-02-13T11:59:13.907Z,28.00
2023-02-13T12:02:19.489Z,23.45
2023-02-13T12:05:25.361Z,17.05
2023-02-13T12:08:29.227Z,19.70
2023-02-13T12:11:49.276Z,14.45
2023-02-13T12:14:52.252Z,12.35
2023-02-13T12:18:31.377Z,17.00
2023-02-13T12:22:00.648Z,16.35
2023-02-13T12:25:21.883Z,11.40
2023-02-13T12:32:05.234Z,17.48
2023-02-13T12:35:21.995Z,16.80
2023-02-13T12:39:03.040Z,16.33
2023-02-13T12:42:33.292Z,19.13
2023-02-13T12:45:43.594Z,17.33
2023-02-13T12:48:55.832Z,16.15
2023-02-13T12:52:22.613Z,15.35
2023-02-13T12:55:53.130Z,17.15
2023-02-13T12:59:39.269Z,22.03
2023-02-13T13:03:10.066Z,23.12
2023-02-13T13:06:31.672Z,20.98
2023-02-13T13:09:46.427Z,32.88
2023-02-13T13:13:16.616Z,26.37
2023-02-13T13:16:25.257Z,25.73
2023-02-13T13:19:46.317Z,13.10
2023-02-13T13:23:15.330Z,23.73
2023-02-13T13:26:32.230Z,17.10
2023-02-13T13:29:46.789Z,12.75
2023-02-13T13:32:54.659Z,13.30
2023-02-13T13:36:18.952Z,22.35
2023-02-13T13:39:32.840Z,23.05
2023-02-13T13:42:42.385Z,15.65
2023-02-13T13:45:54.847Z,21.65
2023-02-13T13:49:21.189Z,18.40
2023-02-13T13:52:26.508Z,14.68
2023-02-13T13:55:50.358Z,21.25
2023-02-13T13:58:54.825Z,6.32
2023-02-13T14:02:19.166Z,15.02
2023-02-13T14:05:33.412Z,10.07
2023-02-13T14:08:42.106Z,9.55
2023-02-13T14:11:47.355Z,13.23
2023-02-13T14:14:51.025Z,8.23
2023-02-13T14:17:56.933Z,13.25
2023-02-13T14:21:01.553Z,15.23
2023-02-13T14:24:11.592Z,16.23
2023-02-13T14:27:37.831Z,9.50
2023-02-13T14:30:40.915Z,14.82
2023-02-13T14:33:43.890Z,7.55
2023-02-13T14:36:49.017Z,20.70
2023-02-13T14:40:12.232Z,8.63
2023-02-13T14:43:29.741Z,12.02
2023-02-13T14:46:38.221Z,28.00
2023-02-13T14:49:42.580Z,19.58
2023-02-13T14:52:47.374Z,23.17
2023-02-13T14:56:05.929Z,34.15
2023-02-13T14:59:17.912Z,28.60
2023-02-13T15:02:30.316Z,49.03
2023-02-13T15:05:34.760Z,69.75
2023-02-13T15:08:42.800Z,54.70
2023-02-13T15:11:45.552Z,34.80
2023-02-13T15:14:48.598Z,23.58
2023-02-13T15:17:57.678Z,23.20
2023-02-13T15:21:01.694Z,14.50
2023-02-13T15:24:04.729Z,17.40
2023-02-13T15:27:07.929Z,13.98
2023-02-13T15:30:32.339Z,10.10
2023-02-13T15:33:45.427Z,6.87
2023-02-13T15:36:48.531Z,11.30
2023-02-13T15:39:51.633Z,11.07
2023-02-13T15:42:55.814Z,14.40
2023-02-13T15:46:01.737Z,14.95
2023-02-13T15:49:10.668Z,14.02
2023-02-13T15:52:34.843Z,19.35
2023-02-13T15:55:38.601Z,27.50
2023-02-13T15:58:41.831Z,25.70
2023-02-13T16:01:44.931Z,18.65
2023-02-13T16:04:50.705Z,12.50
2023-02-13T16:07:57.461Z,20.17
2023-02-13T16:11:24.586Z,20.40
2023-02-13T16:14:30.167Z,23.33
2023-02-13T16:17:38.469Z,26.27
2023-02-13T16:20:42.214Z,37.60
2023-02-13T16:23:45.606Z,74.05
2023-02-13T16:26:49.412Z,61.53
2023-02-13T16:30:27.830Z,42.42
2023-02-13T16:33:38.282Z,61.85
2023-02-13T16:36:41.931Z,57.70
2023-02-13T16:39:44.513Z,29.00
2023-02-13T16:42:47.269Z,23.17
2023-02-13T16:45:50.110Z,19.90
2023-02-13T16:48:59.351Z,24.33
2023-02-13T16:52:19.234Z,25.50
2023-02-13T16:55:22.168Z,29.15
2023-02-13T16:58:25.359Z,24.27
2023-02-13T17:01:28.189Z,20.12
2023-02-13T17:04:31.130Z,25.50
2023-02-13T17:07:42.144Z,31.12
2023-02-13T17:11:02.230Z,39.15
2023-02-13T17:14:05.194Z,48.50
2023-02-13T17:17:17.421Z,56.42
2023-02-13T17:20:29.091Z,25.45
2023-02-13T17:23:31.799Z,19.10
2023-02-13T17:26:34.734Z,14.45
2023-02-13T17:29:37.640Z,14.93
2023-02-13T17:32:40.726Z,9.85
2023-02-13T17:35:43.522Z,16.20
2023-02-13T17:38:46.456Z,9.77
2023-02-13T17:41:49.327Z,14.95
2023-02-13T17:44:53.834Z,14.27
2023-02-13T17:47:59.354Z,13.25
2023-02-13T17:51:03.755Z,11.68
2023-02-13T17:54:06.603Z,7.55
2023-02-13T17:57:10.472Z,17.40
2023-02-13T18:00:13.631Z,13.57
2023-02-13T18:03:16.090Z,13.15
2023-02-13T18:06:19.236Z,27.37
2023-02-13T18:09:22.335Z,20.37
2023-02-13T18:12:25.675Z,8.50
2023-02-13T18:15:30.478Z,12.27
2023-02-13T18:18:33.577Z,15.30
2023-02-13T18:21:36.254Z,8.52
2023-02-13T18:24:41.546Z,8.90
2023-02-13T18:27:49.119Z,10.18
2023-02-13T18:30:52.353Z,9.63
2023-02-13T18:33:55.565Z,17.58
2023-02-13T18:36:58.701Z,15.90
2023-02-13T18:40:02.145Z,9.27
2023-02-13T18:43:05.762Z,9.50
2023-02-13T18:46:08.654Z,9.57
2023-02-13T18:49:13.815Z,7.60
2023-02-13T18:52:16.644Z,10.68
2023-02-13T18:55:19.791Z,14.98
2023-02-13T18:58:22.400Z,12.80
2023-02-13T19:01:25.800Z,10.30
2023-02-13T19:04:28.750Z,13.00
2023-02-13T19:07:31.989Z,9.93
2023-02-13T19:10:34.924Z,6.30
2023-02-13T19:13:37.867Z,5.60
2023-02-13T19:16:41.735Z,8.37
2023-02-13T19:19:46.388Z,10.00
2023-02-13T19:22:49.037Z,11.12
2023-02-13T19:25:51.909Z,21.40
2023-02-13T19:28:56.608Z,16.05
2023-02-13T19:32:00.253Z,8.87
2023-02-13T19:35:03.148Z,10.93
2023-02-13T19:38:06.298Z,12.63
2023-02-13T19:41:11.756Z,10.48
2023-02-13T19:44:14.877Z,12.30
2023-02-13T19:47:17.929Z,12.47
2023-02-13T19:50:22.468Z,11.25
2023-02-13T19:53:25.402Z,9.90
2023-02-13T19:56:29.510Z,8.07
2023-02-13T19:59:32.736Z,9.48
2023-02-13T20:02:37.958Z,7.53
2023-02-13T20:05:41.499Z,8.02
2023-02-13T20:08:44.950Z,8.25
2023-02-13T20:11:48.185Z,9.00
2023-02-13T20:14:51.023Z,10.05
2023-02-13T20:17:54.612Z,6.73
2023-02-13T20:20:58.001Z,8.95
2023-02-13T20:24:02.999Z,12.23
2023-02-13T20:27:05.838Z,36.38
2023-02-13T20:30:11.762Z,48.65
2023-02-13T20:33:16.704Z,42.30
2023-02-13T20:36:24.974Z,25.35
2023-02-13T20:39:28.094Z,11.32
2023-02-13T20:42:34.586Z,9.48
2023-02-13T20:45:37.448Z,9.70
2023-02-13T20:48:43.083Z,6.47
2023-02-13T20:51:46.860Z,11.10
2023-02-13T20:54:49.965Z,9.23
2023-02-13T20:57:56.519Z,8.30
2023-02-13T21:01:00.713Z,3.55
2023-02-13T21:04:03.745Z,7.33
2023-02-13T21:07:09.352Z,9.77
2023-02-13T21:10:11.985Z,8.68
2023-02-13T21:13:15.076Z,10.73
2023-02-13T21:16:23.038Z,9.20
2023-02-13T21:19:26.205Z,9.00
2023-02-13T21:22:30.008Z,8.15
2023-02-13T21:25:33.372Z,9.15
2023-02-13T21:28:36.951Z,6.20
2023-02-13T21:31:47.545Z,8.63
2023-02-13T21:34:50.469Z,8.03
2023-02-13T21:37:53.703Z,7.62
2023-02-13T21:41:04.296Z,10.50
2023-02-13T21:44:07.434Z,10.57
2023-02-13T21:47:10.021Z,9.38
2023-02-13T21:50:13.059Z,14.17
2023-02-13T21:53:15.620Z,14.27
2023-02-13T21:56:20.852Z,17.77
2023-02-13T21:59:23.983Z,15.88
2023-02-13T22:02:28.160Z,11.77
2023-02-13T22:05:31.270Z,11.87
2023-02-13T22:08:34.057Z,10.85
2023-02-13T22:11:37.398Z,11.77
2023-02-13T22:14:39.952Z,7.97
2023-02-13T22:17:42.780Z,7.75
2023-02-13T22:20:45.345Z,8.13
2023-02-13T22:23:48.991Z,9.50
2023-02-13T22:26:51.591Z,9.07
2023-02-13T22:29:54.445Z,7.35
2023-02-13T22:32:59.114Z,5.68
2023-02-13T22:36:02.668Z,10.70
2023-02-13T22:39:06.170Z,4.87
2023-02-13T22:42:09.042Z,7.62
2023-02-13T22:45:11.675Z,5.50
2023-02-13T22:48:14.526Z,8.48
2023-02-13T22:51:22.626Z,6.10
2023-02-13T22:54:25.728Z,10.40
2023-02-13T22:57:28.230Z,6.82
2023-02-13T23:00:31.032Z,12.52
2023-02-13T23:03:33.889Z,12.57
2023-02-13T23:06:36.749Z,7.10
2023-02-13T23:09:39.314Z,8.88
2023-02-13T23:12:45.675Z,7.35
2023-02-13T23:15:50.295Z,10.75
2023-02-13T23:18:55.263Z,5.10
2023-02-13T23:21:58.628Z,6.73
2023-02-13T23:25:02.771Z,5.90
2023-02-13T23:28:06.149Z,5.95
2023-02-13T23:31:09.298Z,5.93
2023-02-13T23:34:11.987Z,8.88
2023-02-13T23:37:14.929Z,9.33
2023-02-13T23:40:18.108Z,9.50
2023-02-13T23:43:20.923Z,9.75
2023-02-13T23:46:23.621Z,11.93
2023-02-13T23:49:26.613Z,9.73
2023-02-13T23:52:29.130Z,10.13
2023-02-13T23:55:31.984Z,11.68
2023-02-13T23:58:34.597Z,9.15
